createdAt,value
2022-09-28T00:00:58.107Z,98560.31
2022-09-28T00:02:05.076Z,98557.84
2022-09-28T00:03:19.703Z,98567.78
2022-09-28T00:04:41.339Z,98569.03
2022-09-28T00:07:41.633Z,98570.70
2022-09-28T00:08:51.441Z,98563.86
2022-09-28T00:11:23.496Z,98564.06
2022-09-28T00:12:30.653Z,98560.34
2022-09-28T00:14:11.077Z,98560.34
2022-09-28T00:15:20.405Z,98573.83
2022-09-28T00:17:47.228Z,98565.73
2022-09-28T00:21:43.829Z,98569.89
2022-09-28T00:25:38.414Z,98577.55
2022-09-28T00:27:14.640Z,98579.00
2022-09-28T00:28:07.743Z,98579.00
2022-09-28T00:29:33.543Z,98575.25
2022-09-28T00:30:39.845Z,98568.80
2022-09-28T00:31:44.990Z,98568.80
2022-09-28T00:32:55.734Z,98572.55
2022-09-28T00:33:56.530Z,98566.53
2022-09-28T00:35:00.465Z,98566.53
2022-09-28T00:36:06.522Z,98569.03
2022-09-28T00:37:17.445Z,98574.43
2022-09-28T00:38:32.954Z,98575.25
2022-09-28T00:39:33.546Z,98575.25
2022-09-28T00:40:43.679Z,98583.97
2022-09-28T00:42:08.459Z,98583.97
2022-09-28T00:43:33.127Z,98575.87
2022-09-28T00:44:41.706Z,98591.02
2022-09-28T00:47:46.114Z,98595.39
2022-09-28T00:49:04.619Z,98587.30
2022-09-28T00:50:14.566Z,98587.30
2022-09-28T00:51:18.682Z,98587.48
2022-09-28T00:52:40.663Z,98584.59
2022-09-28T00:53:45.584Z,98584.59
2022-09-28T00:54:52.445Z,98588.31
2022-09-28T00:56:04.042Z,98581.89
2022-09-28T00:57:10.762Z,98580.02
2022-09-28T00:58:22.078Z,98578.15
2022-09-28T00:59:55.634Z,98578.15
2022-09-28T01:00:33.276Z,98578.15
2022-09-28T01:01:38.864Z,98569.00
2022-09-28T01:06:38.727Z,98563.21
2022-09-28T01:07:45.007Z,98566.96
2022-09-28T01:08:51.882Z,98567.78
2022-09-28T01:09:59.787Z,98573.18
2022-09-28T01:11:15.685Z,98573.18
2022-09-28T01:12:19.760Z,98563.41
2022-09-28T01:13:26.128Z,98566.96
2022-09-28T01:14:34.584Z,98566.96
2022-09-28T01:15:44.134Z,98565.09
2022-09-28T01:17:02.895Z,98565.09
2022-09-28T01:18:15.475Z,98564.27
2022-09-28T01:19:30.937Z,98566.96
2022-09-28T01:20:54.216Z,98565.28
2022-09-28T01:22:09.745Z,98567.98
2022-09-28T01:23:37.529Z,98567.98
2022-09-28T01:24:44.454Z,98568.80
2022-09-28T01:26:15.356Z,98568.80
2022-09-28T01:27:38.486Z,98567.98
2022-09-28T01:28:44.108Z,98569.86
2022-09-28T01:30:02.712Z,98563.84
2022-09-28T01:31:12.289Z,98566.53
2022-09-28T01:32:28.117Z,98567.39
2022-09-28T01:33:41.257Z,98570.28
2022-09-28T01:35:12.890Z,98567.39
2022-09-28T01:36:12.065Z,98567.39
2022-09-28T01:38:56.192Z,98566.53
2022-09-28T01:40:06.096Z,98567.16
2022-09-28T01:42:39.914Z,98564.69
2022-09-28T01:43:52.831Z,98564.69
2022-09-28T01:45:10.912Z,98568.21
2022-09-28T01:46:32.438Z,98565.52
2022-09-28T01:50:33.560Z,98562.81
2022-09-28T01:51:40.463Z,98560.31
2022-09-28T01:52:53.288Z,98563.84
2022-09-28T01:54:01.799Z,98571.92
2022-09-28T01:55:08.746Z,98569.23
2022-09-28T01:56:23.361Z,98570.08
2022-09-28T01:57:38.417Z,98570.08
2022-09-28T01:58:44.974Z,98563.64
2022-09-28T01:59:57.014Z,98569.86
2022-09-28T02:01:02.135Z,98564.46
2022-09-28T02:02:10.711Z,98570.68
2022-09-28T02:03:20.343Z,98570.68
2022-09-28T02:04:30.290Z,98566.11
2022-09-28T02:05:40.153Z,98567.78
2022-09-28T02:06:49.997Z,98562.39
2022-09-28T02:08:11.172Z,98578.58
2022-09-28T02:09:20.980Z,98570.48
2022-09-28T02:11:41.137Z,98567.78
2022-09-28T02:14:21.152Z,98566.92
2022-09-28T02:15:31.001Z,98571.50
2022-09-28T02:16:43.743Z,98573.18
2022-09-28T02:17:53.302Z,98574.00
2022-09-28T02:18:57.538Z,98572.12
2022-09-28T02:20:06.338Z,98571.93
2022-09-28T02:21:19.560Z,98575.45
2022-09-28T02:22:36.660Z,98575.45
2022-09-28T02:23:58.790Z,98565.71
2022-09-28T02:25:06.410Z,98565.71
2022-09-28T02:26:29.679Z,98565.71
2022-09-28T02:27:44.416Z,98565.71
2022-09-28T02:29:03.809Z,98568.41
2022-09-28T02:30:13.891Z,98561.56
2022-09-28T02:31:19.689Z,98567.78
2022-09-28T02:32:26.391Z,98567.78
2022-09-28T02:33:37.665Z,98562.39
2022-09-28T02:36:03.541Z,98563.21
2022-09-28T02:37:09.048Z,98563.21
2022-09-28T02:38:16.927Z,98559.06
2022-09-28T02:39:37.047Z,98559.06
2022-09-28T02:40:39.193Z,98559.06
2022-09-28T02:41:46.370Z,98557.42
2022-09-28T02:42:57.003Z,98557.42
2022-09-28T02:47:21.387Z,98572.36
2022-09-28T02:49:17.389Z,98572.36
2022-09-28T02:50:17.145Z,98571.53
2022-09-28T02:51:37.461Z,98576.30
2022-09-28T02:52:53.060Z,98571.95
2022-09-28T02:53:59.964Z,98569.45
2022-09-28T02:55:29.244Z,98569.45
2022-09-28T02:57:13.994Z,98573.20
2022-09-28T02:58:26.711Z,98572.58
2022-09-28T03:00:03.241Z,98572.58
2022-09-28T03:00:53.549Z,98542.73
2022-09-28T03:02:20.952Z,98542.73
2022-09-28T03:03:30.780Z,98576.33
2022-09-28T03:04:57.119Z,98576.33
2022-09-28T03:06:07.319Z,98571.95
2022-09-28T03:07:23.000Z,98571.95
2022-09-28T03:08:38.271Z,98569.25
2022-09-28T03:09:45.132Z,98574.88
2022-09-28T03:10:56.980Z,98570.30
2022-09-28T03:12:01.125Z,98568.66
2022-09-28T03:13:06.232Z,98573.00
2022-09-28T03:14:11.741Z,98573.00
2022-09-28T03:15:26.034Z,98569.25
2022-09-28T03:16:31.539Z,98569.25
2022-09-28T03:17:35.394Z,98566.56
2022-09-28T03:18:41.506Z,98558.27
2022-09-28T03:19:45.420Z,98558.27
2022-09-28T03:20:51.662Z,98559.09
2022-09-28T03:22:02.697Z,98556.20
2022-09-28T03:23:23.815Z,98567.81
2022-09-28T03:24:13.836Z,98567.81
2022-09-28T03:25:17.810Z,98564.06
2022-09-28T03:26:23.342Z,98564.88
2022-09-28T03:27:30.055Z,98568.44
2022-09-28T03:28:35.603Z,98563.04
2022-09-28T03:29:39.504Z,98560.34
2022-09-28T03:30:43.497Z,98560.34
2022-09-28T03:31:47.837Z,98561.99
2022-09-28T03:32:58.823Z,98563.64
2022-09-28T03:34:02.899Z,98564.49
2022-09-28T03:35:10.201Z,98561.99
2022-09-28T03:36:14.242Z,98571.53
2022-09-28T03:37:18.239Z,98564.49
2022-09-28T03:38:22.306Z,98565.52
2022-09-28T03:39:26.149Z,98566.56
2022-09-28T03:41:46.353Z,98565.73
2022-09-28T03:42:12.643Z,98564.69
2022-09-28T03:42:57.633Z,98563.86
2022-09-28T03:44:03.444Z,98558.67
2022-09-28T03:45:09.649Z,98559.92
2022-09-28T03:46:15.351Z,98563.47
2022-09-28T03:47:19.672Z,98559.92
2022-09-28T03:48:31.240Z,98560.77
2022-09-28T03:49:32.579Z,98560.77
2022-09-28T03:50:37.577Z,98550.38
2022-09-28T03:52:14.522Z,98550.38
2022-09-28T03:53:25.671Z,98561.59
2022-09-28T03:54:27.541Z,98558.89
2022-09-28T03:55:33.390Z,98558.89
2022-09-28T03:56:38.679Z,98560.14
2022-09-28T03:57:51.619Z,98554.97
2022-09-28T03:58:55.517Z,98559.31
2022-09-28T03:59:59.424Z,98552.28
2022-09-28T04:01:11.863Z,98552.47
2022-09-28T04:02:16.183Z,98556.84
2022-09-28T04:03:21.700Z,98552.70
2022-09-28T04:04:25.587Z,98552.70
2022-09-28T04:05:30.876Z,98566.58
2022-09-28T04:06:36.403Z,98561.19
2022-09-28T04:07:45.352Z,98566.58
2022-09-28T04:09:03.490Z,98567.63
2022-09-28T04:10:11.196Z,98567.63
2022-09-28T04:11:52.882Z,98566.58
2022-09-28T04:12:33.507Z,98574.66
2022-09-28T04:13:57.618Z,98571.97
2022-09-28T04:14:53.166Z,98580.91
2022-09-28T04:18:41.331Z,98577.98
2022-09-28T04:19:45.298Z,98576.97
2022-09-28T04:21:02.628Z,98579.67
2022-09-28T04:22:55.770Z,98581.51
2022-09-28T04:23:16.135Z,98579.67
2022-09-28T04:24:20.048Z,98576.97
2022-09-28T04:25:25.234Z,98576.97
2022-09-28T04:26:52.038Z,98576.97
2022-09-28T04:27:40.025Z,98580.48
2022-09-28T04:28:47.668Z,98573.22
2022-09-28T04:29:51.515Z,98580.27
2022-09-28T04:30:56.986Z,98579.24
2022-09-28T04:32:02.722Z,98581.52
2022-09-28T04:33:08.299Z,98575.08
2022-09-28T04:34:13.831Z,98575.70
2022-09-28T04:35:20.874Z,98571.95
2022-09-28T04:36:26.388Z,98571.95
2022-09-28T04:37:30.324Z,98569.88
2022-09-28T04:38:51.947Z,98575.08
2022-09-28T04:39:39.909Z,98568.86
2022-09-28T04:40:43.895Z,98571.33
2022-09-28T04:41:49.192Z,98563.23
2022-09-28T04:42:56.387Z,98565.73
2022-09-28T04:44:00.571Z,98571.95
2022-09-28T04:45:04.843Z,98566.56
2022-09-28T04:46:10.797Z,98574.42
2022-09-28T04:47:14.930Z,98577.75
2022-09-28T04:48:33.422Z,98573.17
2022-09-28T04:49:25.952Z,98574.03
2022-09-28T04:50:31.844Z,98580.45
2022-09-28T04:51:37.165Z,98580.45
2022-09-28T04:52:44.169Z,98581.08
2022-09-28T04:53:56.742Z,98577.33
2022-09-28T04:55:02.977Z,98584.39
2022-09-28T04:57:48.124Z,98587.09
2022-09-28T04:59:00.103Z,98168.16
2022-09-28T05:00:19.592Z,98590.61
2022-09-28T05:01:33.975Z,98586.27
2022-09-28T05:02:32.152Z,98561.82
2022-09-28T05:03:35.537Z,98585.41
2022-09-28T05:04:45.728Z,98583.58
2022-09-28T05:05:48.110Z,98583.58
2022-09-28T05:06:52.115Z,98582.72
2022-09-28T05:07:58.828Z,98588.11
2022-09-28T05:09:02.771Z,98588.97
2022-09-28T05:10:06.943Z,98588.11
2022-09-28T05:11:14.250Z,98588.11
2022-09-28T05:12:19.872Z,98591.44
2022-09-28T05:13:26.007Z,98595.19
2022-09-28T05:14:29.857Z,98595.19
2022-09-28T05:15:37.381Z,98588.73
2022-09-28T05:16:41.410Z,98592.26
2022-09-28T05:17:52.654Z,98589.36
2022-09-28T05:19:04.845Z,98583.97
2022-09-28T05:21:22.832Z,98584.59
2022-09-28T05:21:46.725Z,98580.22
2022-09-28T05:22:28.466Z,98579.80
2022-09-28T05:23:35.266Z,98579.80
2022-09-28T05:24:44.388Z,98580.42
2022-09-28T05:26:11.819Z,98579.40
2022-09-28T05:27:50.489Z,98587.89
2022-09-28T05:28:14.596Z,98587.89
2022-09-28T05:29:20.240Z,98589.53
2022-09-28T05:30:24.917Z,98589.53
2022-09-28T05:31:30.441Z,98590.78
2022-09-28T05:32:34.352Z,98584.33
2022-09-28T05:33:38.368Z,98586.83
2022-09-28T05:34:42.273Z,98586.83
2022-09-28T05:35:52.392Z,98586.41
2022-09-28T05:36:53.568Z,98580.58
2022-09-28T05:37:59.290Z,98581.41
2022-09-28T05:39:03.288Z,98583.90
2022-09-28T05:40:17.197Z,98578.08
2022-09-28T05:41:21.716Z,98580.34
2022-09-28T05:42:25.668Z,98584.69
2022-09-28T05:43:30.838Z,98584.69
2022-09-28T05:44:36.499Z,98586.75
2022-09-28T05:45:40.617Z,98579.28
2022-09-28T05:46:48.962Z,98579.28
2022-09-28T05:47:52.814Z,98580.72
2022-09-28T05:48:58.379Z,98583.81
2022-09-28T05:50:04.463Z,98573.64
2022-09-28T05:51:09.713Z,98168.83
2022-09-28T05:52:15.200Z,98584.19
2022-09-28T05:53:20.661Z,98585.64
2022-09-28T05:54:27.582Z,98584.14
2022-09-28T05:55:32.417Z,98584.14
2022-09-28T05:56:36.389Z,98593.69
2022-09-28T05:57:41.878Z,98589.53
2022-09-28T05:59:42.416Z,98589.53
2022-09-28T06:00:31.452Z,98596.58
2022-09-28T06:01:17.039Z,98596.38
2022-09-28T06:02:39.908Z,98600.72
2022-09-28T06:21:02.147Z,98595.65
2022-09-28T06:22:16.526Z,98596.13
2022-09-28T06:23:33.276Z,98593.22
2022-09-28T06:24:29.602Z,98593.22
2022-09-28T06:26:01.161Z,98592.38
2022-09-28T06:26:48.088Z,98592.38
2022-09-28T06:28:07.520Z,98593.97
2022-09-28T06:29:21.667Z,98591.89
2022-09-28T06:30:30.445Z,98593.56
2022-09-28T06:31:36.162Z,98593.56
2022-09-28T06:32:47.160Z,98593.13
2022-09-28T06:33:57.389Z,98593.13
2022-09-28T06:39:19.511Z,98587.90
2022-09-28T06:39:53.998Z,98587.90
2022-09-28T06:41:10.709Z,98583.32
2022-09-28T06:42:12.025Z,98589.75
2022-09-28T06:48:53.232Z,98584.32
2022-09-28T06:54:11.162Z,98574.50
2022-09-28T06:55:35.752Z,98574.50
2022-09-28T06:56:33.124Z,98573.41
2022-09-28T06:58:06.737Z,98573.41
2022-09-28T07:00:43.204Z,98581.70
2022-09-28T07:01:45.539Z,98583.34
2022-09-28T07:03:07.617Z,98587.10
2022-09-28T07:04:08.258Z,98585.43
2022-09-28T07:05:15.341Z,98585.43
2022-09-28T07:10:04.007Z,98582.34
2022-09-28T07:11:08.027Z,98578.00
2022-09-28T07:12:11.890Z,98580.47
2022-09-28T07:13:45.070Z,98580.47
2022-09-28T07:14:41.112Z,98576.73
2022-09-28T07:15:29.499Z,98579.64
2022-09-28T07:16:56.331Z,98580.47
2022-09-28T07:17:54.385Z,98583.41
2022-09-28T07:18:45.858Z,98583.41
2022-09-28T07:19:51.257Z,98584.67
2022-09-28T07:20:57.615Z,98576.77
2022-09-28T07:22:05.464Z,98584.05
2022-09-28T07:23:19.102Z,98577.00
2022-09-28T07:24:16.991Z,98583.44
2022-09-28T07:25:25.193Z,98583.44
2022-09-28T07:27:56.971Z,98569.03
2022-09-28T07:29:02.511Z,98569.03
2022-09-28T07:30:07.459Z,98562.16
2022-09-28T07:31:13.427Z,98567.36
2022-09-28T07:32:16.905Z,98567.36
2022-09-28T07:33:20.819Z,98564.66
2022-09-28T07:34:24.817Z,98562.33
2022-09-28T07:35:30.359Z,98562.70
2022-09-28T07:36:38.309Z,98559.55
2022-09-28T07:39:07.802Z,98555.58
2022-09-28T07:40:13.471Z,98551.61
2022-09-28T07:41:26.600Z,98551.16
2022-09-28T07:42:32.163Z,98551.16
2022-09-28T07:43:38.900Z,98549.08
2022-09-28T07:44:41.971Z,98553.21
2022-09-28T07:45:46.384Z,98553.21
2022-09-28T07:46:53.390Z,98547.80
2022-09-28T07:47:57.265Z,98547.80
2022-09-28T07:49:04.035Z,98554.86
2022-09-28T07:50:10.643Z,98554.44
2022-09-28T07:51:14.584Z,98561.49
2022-09-28T07:52:20.093Z,98561.49
2022-09-28T07:54:50.632Z,98551.00
2022-09-28T07:55:59.432Z,98546.20
2022-09-28T07:57:03.287Z,98546.20
2022-09-28T07:58:08.760Z,98547.55
2022-09-28T07:59:12.737Z,98545.01
2022-09-28T08:00:16.932Z,98545.01
2022-09-28T08:01:21.001Z,98554.92
2022-09-28T08:02:24.952Z,98551.95
2022-09-28T08:03:30.382Z,98550.02
2022-09-28T08:04:34.378Z,98545.21
2022-09-28T08:11:34.608Z,98536.44
2022-09-28T08:12:29.755Z,98536.44
2022-09-28T08:16:58.003Z,98547.74
2022-09-28T08:18:02.997Z,98547.74
2022-09-28T08:19:08.856Z,98538.00
2022-09-28T08:20:15.630Z,98538.00
2022-09-28T08:21:31.522Z,98545.80
2022-09-28T08:41:53.049Z,98559.33
2022-09-28T08:43:52.603Z,98553.50
2022-09-28T08:44:32.506Z,98551.86
2022-09-28T08:46:02.542Z,98551.86
2022-09-28T09:05:18.248Z,98544.92
2022-09-28T09:06:29.317Z,98536.19
2022-09-28T09:07:57.149Z,98536.19
2022-09-28T09:09:24.995Z,98543.16
2022-09-28T09:10:55.481Z,98537.73
2022-09-28T09:12:24.672Z,98540.91
2022-09-28T09:13:55.763Z,98538.20
2022-09-28T09:15:08.637Z,98538.20
2022-09-28T09:16:36.559Z,98546.43
2022-09-28T09:17:53.580Z,98546.43
2022-09-28T09:19:19.767Z,98546.55
2022-09-28T09:20:43.490Z,98546.55
2022-09-28T09:22:14.463Z,98546.43
2022-09-28T09:23:26.650Z,98559.43
2022-09-28T09:24:51.138Z,98559.43
2022-09-28T09:26:00.318Z,98562.84
2022-09-28T09:55:45.729Z,98550.95
2022-09-28T09:57:22.267Z,98550.95
2022-09-28T11:38:21.111Z,98547.91
2022-09-28T11:55:43.010Z,98541.97
2022-09-28T12:53:52.997Z,98559.30
2022-09-28T13:21:23.246Z,98548.22
2022-09-28T13:22:30.280Z,98548.22
2022-09-28T13:23:47.198Z,98550.70
2022-09-28T13:24:55.800Z,98561.09
2022-09-28T13:26:19.269Z,98549.75
2022-09-28T13:27:41.216Z,98560.39
2022-09-28T13:28:51.568Z,98557.67
2022-09-28T13:30:00.936Z,98557.67
2022-09-28T13:31:06.462Z,98556.82
2022-09-28T13:32:12.024Z,98558.97
2022-09-28T13:33:19.024Z,98558.97
2022-09-28T13:34:32.505Z,98566.99
2022-09-28T13:35:41.982Z,98562.48
2022-09-28T13:36:48.401Z,98562.48
2022-09-28T14:22:33.965Z,98569.61
2022-09-28T14:24:15.742Z,98569.61
2022-09-28T14:25:42.281Z,98567.72
2022-09-28T14:26:38.291Z,98567.72
2022-09-28T14:28:04.823Z,98566.01
2022-09-28T14:29:15.004Z,98568.72
2022-09-28T14:30:26.992Z,98568.72
2022-09-28T14:32:55.219Z,98563.77
2022-09-28T14:33:09.376Z,98570.61
2022-09-28T14:34:00.459Z,98572.72
2022-09-28T14:35:13.488Z,98572.72
2022-09-28T14:36:25.120Z,98572.72
2022-09-28T14:37:37.838Z,98578.39
2022-09-28T14:38:51.098Z,98578.39
2022-09-28T14:39:56.789Z,98576.97
2022-09-28T14:41:04.002Z,98583.42
2022-09-28T14:42:18.468Z,98590.73
2022-09-28T14:43:28.289Z,98590.73
2022-09-28T14:44:35.332Z,98587.81
2022-09-28T14:46:07.484Z,98570.09
2022-09-28T14:46:54.550Z,98588.27
2022-09-28T14:48:15.944Z,98584.14
2022-09-28T14:49:25.985Z,98584.95
2022-09-28T14:50:31.568Z,98591.66
2022-09-28T14:51:51.763Z,98590.84
2022-09-28T14:53:22.746Z,98594.59
2022-09-28T14:54:12.899Z,98597.19
2022-09-28T14:55:21.182Z,98599.30
2022-09-28T14:56:32.810Z,98599.30
2022-09-28T14:57:35.802Z,98599.76
2022-09-28T14:58:52.926Z,98604.33
2022-09-28T14:59:55.001Z,98611.06
2022-09-28T15:01:07.999Z,98603.97
2022-09-28T15:02:16.168Z,98609.02
2022-09-28T15:03:24.687Z,98603.81
2022-09-28T15:04:33.404Z,98611.73
2022-09-28T15:05:42.043Z,98603.24
2022-09-28T15:06:48.974Z,98614.08
2022-09-28T15:07:56.220Z,98614.08
2022-09-28T15:09:03.841Z,98607.45
2022-09-28T15:10:30.130Z,98610.62
2022-09-28T15:11:34.198Z,98610.62
2022-09-28T15:12:38.269Z,98610.01
2022-09-28T15:13:47.574Z,98610.25
2022-09-28T15:14:55.985Z,98610.25
2022-09-28T15:16:21.680Z,98616.70
2022-09-28T15:17:21.065Z,98328.72
2022-09-28T15:18:39.573Z,98616.95
2022-09-28T15:20:09.374Z,98616.95
2022-09-28T15:21:15.594Z,98621.77
2022-09-28T15:22:21.291Z,98629.28
2022-09-28T15:23:38.888Z,98621.82
2022-09-28T15:25:02.841Z,98613.94
2022-09-28T15:26:27.636Z,98624.77
2022-09-28T15:27:38.882Z,98628.76
2022-09-28T15:28:45.791Z,98627.94
2022-09-28T15:30:03.624Z,98637.09
2022-09-28T15:31:07.822Z,98632.74
2022-09-28T15:32:25.507Z,98632.74
2022-09-28T15:33:33.997Z,98636.52
2022-09-28T15:34:43.272Z,98633.20
2022-09-28T15:36:08.912Z,98639.44
2022-09-28T15:37:08.683Z,98633.20
2022-09-28T15:38:14.539Z,98635.09
2022-09-28T15:39:24.230Z,98639.89
2022-09-28T15:40:40.778Z,98635.75
2022-09-28T15:42:00.037Z,98633.05
2022-09-28T15:43:10.912Z,98637.39
2022-09-28T15:44:25.042Z,98640.10
2022-09-28T17:32:22.563Z,98718.01
2022-09-28T17:33:27.868Z,98724.39
2022-09-28T17:34:33.491Z,98722.71
2022-09-28T17:35:39.722Z,98722.71
2022-09-28T17:36:45.032Z,98722.13
2022-09-28T17:37:50.875Z,98725.03
2022-09-28T17:38:55.046Z,98726.68
2022-09-28T17:40:04.660Z,98730.45
2022-09-28T17:41:19.975Z,98722.13
2022-09-28T17:43:12.061Z,98727.53
2022-09-28T17:43:28.661Z,98729.18
2022-09-28T17:44:34.149Z,98733.77
2022-09-28T17:45:39.497Z,98703.86
2022-09-28T17:46:49.328Z,98688.34
2022-09-28T17:48:21.427Z,98723.33
2022-09-28T17:49:12.324Z,98723.33
2022-09-28T17:50:24.433Z,98729.80
2022-09-28T17:51:38.465Z,98728.13
2022-09-28T17:53:53.275Z,98732.50
2022-09-28T17:55:00.501Z,98732.50
2022-09-28T17:55:59.930Z,98733.33
2022-09-28T17:56:07.936Z,98734.15
2022-09-28T17:57:13.319Z,98735.80
2022-09-28T17:58:23.682Z,98733.95
2022-09-28T17:59:30.882Z,98741.83
2022-09-28T18:00:38.194Z,98741.83
2022-09-28T18:01:44.029Z,98742.88
2022-09-28T18:02:56.775Z,98740.18
2022-09-28T18:07:05.823Z,98744.09
2022-09-28T19:19:24.145Z,98828.46
2022-09-28T19:20:22.812Z,98828.46
2022-09-28T19:21:28.588Z,98832.81
2022-09-28T19:22:32.801Z,98838.21
2022-09-28T19:23:40.387Z,98842.59
2022-09-28T19:24:49.988Z,98842.59
2022-09-28T19:26:03.847Z,98846.73
2022-09-28T19:27:10.103Z,98849.66
2022-09-28T19:28:14.227Z,98852.55
2022-09-28T19:29:20.391Z,98856.30
2022-09-28T19:30:30.835Z,98856.71
2022-09-28T19:31:35.255Z,98856.71
2022-09-28T19:32:39.283Z,98855.45
2022-09-28T19:33:44.040Z,98855.45
2022-09-28T19:35:41.251Z,98869.55
2022-09-28T19:36:06.295Z,98862.09
2022-09-28T19:37:09.013Z,98869.55
2022-09-28T19:38:13.181Z,98869.97
2022-09-28T19:39:24.344Z,98877.43
2022-09-28T19:40:41.991Z,98883.23
2022-09-28T19:41:39.287Z,98883.23
2022-09-28T19:43:36.605Z,98873.69
2022-09-28T19:43:57.938Z,98883.84
2022-09-28T19:45:08.013Z,98883.84
2022-09-28T19:46:38.516Z,98882.15
2022-09-28T19:47:24.824Z,98882.15
2022-09-28T19:48:31.450Z,98887.73
2022-09-28T19:49:39.679Z,98894.14
2022-09-28T19:50:45.425Z,98894.55
2022-09-28T19:52:11.421Z,98892.26
2022-09-28T19:52:58.056Z,98895.36
2022-09-28T19:54:08.394Z,98901.16
2022-09-28T19:55:35.593Z,98899.70
2022-09-28T19:56:21.427Z,98899.70
2022-09-28T21:37:59.836Z,98987.99
2022-09-28T21:39:08.223Z,98985.51
2022-09-28T21:40:10.674Z,98985.51
2022-09-28T21:41:16.221Z,98984.48
2022-09-28T21:42:25.185Z,98986.13
2022-09-28T21:43:29.401Z,98986.13
2022-09-28T21:44:36.245Z,98995.88
2022-09-28T21:45:42.176Z,98995.88
2022-09-28T21:46:46.221Z,98992.16
2022-09-28T21:47:50.281Z,98990.51
2022-09-28T21:48:54.729Z,98988.65
2022-09-28T21:49:58.710Z,98985.13
2022-09-28T21:51:05.341Z,98985.13
2022-09-28T21:52:09.324Z,98988.82
2022-09-28T21:53:15.630Z,98994.20
2022-09-28T21:54:38.899Z,98994.20
2022-09-28T21:55:44.522Z,98992.54
2022-09-28T21:56:57.756Z,98997.91
2022-09-28T21:58:23.914Z,98996.25
2022-09-28T21:59:18.801Z,98996.25
2022-09-28T22:00:24.596Z,98996.59
2022-09-28T22:01:28.731Z,98996.97
2022-09-28T22:02:32.904Z,98996.97
2022-09-28T22:04:01.829Z,98996.97
2022-09-28T22:04:45.848Z,98994.66
2022-09-28T22:05:51.467Z,98994.66
2022-09-28T22:06:55.434Z,99009.13
2022-09-28T22:08:01.314Z,98998.55
2022-09-28T22:09:06.392Z,98883.00
2022-09-28T22:10:14.918Z,99014.88
2022-09-28T22:11:27.212Z,99013.18
2022-09-28T22:12:32.920Z,99012.52
2022-09-28T22:13:44.822Z,99016.23
2022-09-28T22:14:51.879Z,99021.61
2022-09-28T22:15:57.057Z,99020.78
2022-09-28T22:17:12.283Z,99018.27
2022-09-28T22:18:06.976Z,99020.33
2022-09-28T22:19:11.017Z,99020.33
2022-09-28T22:20:17.537Z,99028.38
2022-09-28T22:21:23.962Z,99027.73
2022-09-28T22:22:39.579Z,99033.09
2022-09-28T22:23:41.628Z,99035.13
2022-09-28T22:24:41.181Z,99035.13
2022-09-28T22:25:45.314Z,99024.75
2022-09-28T22:26:52.389Z,99024.75
2022-09-28T22:27:59.969Z,99030.12
2022-09-28T22:29:07.038Z,99023.26
2022-09-28T22:30:13.775Z,99023.26
2022-09-28T22:31:20.311Z,99027.14
2022-09-28T22:32:29.043Z,99025.48
2022-09-28T22:33:34.752Z,99025.48
2022-09-28T22:34:43.044Z,99028.34
2022-09-28T22:35:46.289Z,99032.88
2022-09-28T22:36:50.412Z,99023.34
2022-09-28T22:37:55.916Z,99026.19
2022-09-28T22:39:00.667Z,99022.51
2022-09-28T22:40:06.871Z,99027.22
2022-09-28T22:41:14.596Z,99030.93
2022-09-28T22:42:22.500Z,99027.38
2022-09-28T22:43:28.151Z,99029.24
2022-09-28T22:44:33.831Z,99026.75
2022-09-28T22:45:37.962Z,99026.75
2022-09-28T22:46:42.098Z,99030.64
2022-09-28T22:47:46.499Z,99015.52
2022-09-28T22:49:12.766Z,99022.75
2022-09-28T22:50:02.178Z,99023.95
2022-09-28T22:51:07.545Z,99027.66
2022-09-28T22:52:18.035Z,99026.99
2022-09-28T22:53:20.848Z,99028.02
2022-09-28T22:54:28.072Z,99032.56
2022-09-28T22:55:44.510Z,99032.56
2022-09-28T22:56:45.048Z,98899.80
2022-09-28T22:57:49.638Z,98899.80
2022-09-28T22:58:57.593Z,99039.45
2022-09-28T23:00:04.872Z,99039.45
2022-09-28T23:01:14.780Z,99041.88
2022-09-28T23:02:18.847Z,99041.88
2022-09-28T23:03:24.338Z,99040.38
2022-09-28T23:04:28.405Z,99040.38
2022-09-28T23:05:32.719Z,99040.55
2022-09-28T23:06:36.986Z,99043.40
2022-09-28T23:07:41.106Z,99011.20
2022-09-28T23:08:47.786Z,99043.59
2022-09-28T23:09:53.464Z,99047.94
2022-09-28T23:10:57.536Z,99043.59
2022-09-28T23:12:01.803Z,99054.50
2022-09-28T23:13:05.914Z,99054.50
2022-09-28T23:14:11.958Z,99053.00
2022-09-28T23:15:20.120Z,99053.00
2022-09-28T23:16:27.737Z,98976.33
2022-09-28T23:17:38.077Z,98976.33
2022-09-28T23:18:41.185Z,99048.00
2022-09-28T23:19:48.384Z,99039.95
2022-09-28T23:21:01.056Z,99050.68
2022-09-28T23:22:08.170Z,99050.68
2022-09-28T23:23:13.539Z,99047.33
2022-09-28T23:24:29.829Z,99048.36
2022-09-28T23:25:34.239Z,99044.18
2022-09-28T23:26:36.045Z,99043.35
2022-09-28T23:27:43.470Z,99043.35
2022-09-28T23:28:53.229Z,99044.38
2022-09-28T23:29:54.994Z,99044.38
2022-09-28T23:31:09.098Z,99039.34
2022-09-28T23:32:15.425Z,99044.07
2022-09-28T23:33:23.684Z,99044.07
2022-09-28T23:34:36.517Z,99042.22
2022-09-28T23:35:37.276Z,99043.41
2022-09-28T23:36:41.407Z,99047.91
2022-09-28T23:38:54.353Z,99050.76
2022-09-28T23:39:26.104Z,99047.91
2022-09-28T23:40:00.156Z,99050.76
2022-09-28T23:41:11.100Z,99054.63
2022-09-28T23:42:15.017Z,99054.63
2022-09-28T23:43:23.137Z,99056.48
2022-09-28T23:44:33.067Z,99056.48
2022-09-28T23:45:36.902Z,99065.55
2022-09-28T23:46:44.327Z,99065.55
2022-09-28T23:48:17.005Z,99064.89
2022-09-28T23:49:02.539Z,99071.60
2022-09-28T23:50:08.948Z,99063.55
2022-09-28T23:51:16.594Z,99064.58
2022-09-28T23:52:27.607Z,99072.63
2022-09-28T23:53:29.858Z,99073.45
2022-09-28T23:54:33.903Z,99071.80
2022-09-28T23:55:38.149Z,99068.28
2022-09-28T23:56:42.225Z,99068.28
2022-09-28T23:57:46.958Z,99066.59
2022-09-28T23:59:42.389Z,99071.96
